createdAt,value
2019-01-25T00:01:11.244Z,9.20
2019-01-25T00:04:00.819Z,9.23
2019-01-25T00:06:43.492Z,11.00
2019-01-25T00:11:57.403Z,12.70
2019-01-25T00:14:27.899Z,13.50
2019-01-25T00:17:17.968Z,14.10
2019-01-25T00:22:35.278Z,9.00
2019-01-25T00:25:24.917Z,11.70
2019-01-25T00:28:06.637Z,13.27
2019-01-25T00:30:49.189Z,12.13
2019-01-25T00:33:31.237Z,7.73
2019-01-25T00:36:13.722Z,7.60
2019-01-25T00:38:56.103Z,9.57
2019-01-25T00:41:38.706Z,8.20
2019-01-25T00:44:21.035Z,10.03
2019-01-25T00:47:02.836Z,10.67
2019-01-25T00:49:33.682Z,9.70
2019-01-25T00:52:23.476Z,10.43
2019-01-25T00:55:05.343Z,11.07
2019-01-25T00:57:35.915Z,8.90
2019-01-25T01:00:28.585Z,12.03
2019-01-25T01:06:02.919Z,7.30
2019-01-25T01:08:52.583Z,8.47
2019-01-25T01:11:42.155Z,6.60
2019-01-25T01:17:08.942Z,12.23
2019-01-25T01:19:51.831Z,7.47
2019-01-25T01:22:34.979Z,10.90
2019-01-25T01:25:17.078Z,9.80
2019-01-25T01:28:00.688Z,12.37
2019-01-25T01:30:31.708Z,9.97
2019-01-25T01:33:22.864Z,9.80
2019-01-25T01:36:05.034Z,9.13
2019-01-25T01:38:46.838Z,9.73
2019-01-25T01:41:29.427Z,8.30
2019-01-25T01:44:12.362Z,11.20
2019-01-25T01:46:55.139Z,9.60
2019-01-25T01:49:37.195Z,15.20
2019-01-25T01:52:19.389Z,7.60
2019-01-25T01:55:01.469Z,7.53
2019-01-25T01:57:31.978Z,5.97
2019-01-25T02:00:20.755Z,7.83
2019-01-25T02:03:03.235Z,9.07
2019-01-25T02:05:33.860Z,8.23
2019-01-25T02:08:06.053Z,6.97
2019-01-25T02:10:49.546Z,9.13
2019-01-25T02:13:20.146Z,7.27
2019-01-25T02:16:09.719Z,9.30
2019-01-25T02:18:59.398Z,8.53
2019-01-25T02:21:43.215Z,10.90
2019-01-25T02:24:26.858Z,11.17
2019-01-25T02:27:10.020Z,10.93
2019-01-25T02:29:52.672Z,10.40
2019-01-25T02:32:23.688Z,12.80
2019-01-25T02:35:13.359Z,9.90
2019-01-25T02:37:47.241Z,10.40
2019-01-25T02:40:21.766Z,10.03
2019-01-25T02:43:11.399Z,12.33
2019-01-25T02:45:41.932Z,9.13
2019-01-25T02:48:31.519Z,9.00
2019-01-25T02:51:21.344Z,10.93
2019-01-25T02:54:11.294Z,11.10
2019-01-25T02:56:42.184Z,12.73
2019-01-25T02:59:31.768Z,6.93
2019-01-25T03:02:22.154Z,10.17
2019-01-25T03:05:04.688Z,7.73
2019-01-25T03:07:35.207Z,10.00
2019-01-25T03:10:29.196Z,8.50
2019-01-25T03:13:27.635Z,7.37
2019-01-25T03:15:58.162Z,9.33
2019-01-25T03:18:47.958Z,13.73
2019-01-25T03:21:39.111Z,11.77
2019-01-25T03:24:23.344Z,10.13
2019-01-25T03:27:05.690Z,14.10
2019-01-25T03:29:48.186Z,12.67
2019-01-25T03:32:19.299Z,12.33
2019-01-25T03:34:50.306Z,12.63
2019-01-25T03:37:21.286Z,9.20
2019-01-25T03:40:13.987Z,13.97
2019-01-25T03:42:44.958Z,10.67
2019-01-25T03:45:34.573Z,9.87
2019-01-25T03:48:24.416Z,8.27
2019-01-25T03:51:14.033Z,11.67
2019-01-25T03:53:44.827Z,12.23
2019-01-25T03:56:34.422Z,9.80
2019-01-25T03:59:16.872Z,8.90
2019-01-25T04:04:39.222Z,10.43
2019-01-25T04:07:28.557Z,12.50
2019-01-25T04:12:40.174Z,11.27
2019-01-25T04:18:49.343Z,13.53
2019-01-25T04:21:33.217Z,12.37
2019-01-25T04:26:43.734Z,11.97
2019-01-25T04:29:16.219Z,10.17
2019-01-25T04:32:05.915Z,9.63
2019-01-25T04:34:49.924Z,10.27
2019-01-25T04:37:20.453Z,10.53
2019-01-25T04:43:15.857Z,13.03
2019-01-25T04:45:46.378Z,10.00
2019-01-25T04:48:37.530Z,12.80
2019-01-25T04:51:19.608Z,11.00
2019-01-25T04:54:02.731Z,11.73
2019-01-25T04:56:38.592Z,11.73
2019-01-25T05:02:20.896Z,11.10
2019-01-25T05:04:51.418Z,12.80
2019-01-25T05:07:41.011Z,15.33
2019-01-25T05:10:23.100Z,14.17
2019-01-25T05:13:05.259Z,14.87
2019-01-25T05:15:35.779Z,11.83
2019-01-25T05:18:25.421Z,12.27
2019-01-25T05:21:34.359Z,12.43
2019-01-25T05:24:18.380Z,11.03
2019-01-25T05:27:00.796Z,11.93
2019-01-25T05:29:54.682Z,13.53
2019-01-25T05:32:45.839Z,13.73
2019-01-25T05:35:28.023Z,16.27
2019-01-25T05:38:10.300Z,13.40
2019-01-25T05:40:52.115Z,13.07
2019-01-25T05:43:22.948Z,14.07
2019-01-25T05:46:12.554Z,12.13
2019-01-25T05:49:02.137Z,16.10
2019-01-25T05:51:33.655Z,20.23
2019-01-25T05:54:24.148Z,19.43
2019-01-25T05:56:54.679Z,21.33
2019-01-25T05:59:25.212Z,14.67
2019-01-25T06:01:55.771Z,14.10
2019-01-25T06:04:47.978Z,13.63
2019-01-25T06:07:30.667Z,12.90
2019-01-25T06:10:01.190Z,11.60
2019-01-25T06:12:53.189Z,14.60
2019-01-25T06:18:27.131Z,15.97
2019-01-25T06:21:16.720Z,13.07
2019-01-25T06:23:47.331Z,13.97
2019-01-25T06:26:36.935Z,13.20
2019-01-25T06:29:19.410Z,17.97
2019-01-25T06:31:52.094Z,16.37
2019-01-25T06:34:22.580Z,16.03
2019-01-25T06:37:12.551Z,16.07
2019-01-25T06:39:54.820Z,12.90
2019-01-25T06:42:36.980Z,14.10
2019-01-25T06:45:19.144Z,16.40
2019-01-25T06:48:01.071Z,15.67
2019-01-25T06:50:44.315Z,13.30
2019-01-25T06:53:26.422Z,14.30
2019-01-25T06:56:08.319Z,14.60
2019-01-25T07:02:15.544Z,13.63
2019-01-25T07:04:57.687Z,16.73
2019-01-25T07:07:41.007Z,13.10
2019-01-25T07:10:23.552Z,18.53
2019-01-25T07:13:06.004Z,14.40
2019-01-25T07:15:48.717Z,19.43
2019-01-25T07:18:31.872Z,16.30
2019-01-25T07:21:02.398Z,15.67
2019-01-25T07:23:32.880Z,15.60
2019-01-25T07:26:22.488Z,17.13
2019-01-25T07:28:53.020Z,17.33
2019-01-25T07:31:42.619Z,15.10
2019-01-25T07:37:44.235Z,19.90
2019-01-25T07:40:33.165Z,14.17
2019-01-25T07:43:15.753Z,17.00
2019-01-25T07:45:58.470Z,16.00
2019-01-25T07:48:40.235Z,17.63
2019-01-25T07:51:10.765Z,16.13
2019-01-25T07:54:00.379Z,17.17
2019-01-25T07:56:30.954Z,15.53
2019-01-25T07:59:20.551Z,16.95
2019-01-25T08:02:02.810Z,15.60
2019-01-25T08:07:29.040Z,16.50
2019-01-25T08:09:59.591Z,15.67
2019-01-25T08:12:49.129Z,16.73
2019-01-25T08:15:31.042Z,13.93
2019-01-25T08:18:13.235Z,15.50
2019-01-25T08:20:55.041Z,16.27
2019-01-25T08:23:38.872Z,16.90
2019-01-25T08:26:20.806Z,15.33
2019-01-25T08:31:34.443Z,18.03
2019-01-25T08:34:24.062Z,14.80
2019-01-25T08:37:13.940Z,17.77
2019-01-25T08:39:56.269Z,18.03
2019-01-25T08:42:38.346Z,17.03
2019-01-25T08:45:21.075Z,18.17
2019-01-25T08:47:51.579Z,15.93
2019-01-25T08:50:23.751Z,19.37
2019-01-25T08:53:05.477Z,16.90
2019-01-25T08:55:36.071Z,18.03
2019-01-25T08:58:25.627Z,17.13
2019-01-25T09:00:56.310Z,15.43
2019-01-25T09:03:45.919Z,18.20
2019-01-25T09:06:27.887Z,15.93
2019-01-25T09:09:17.491Z,13.73
2019-01-25T09:11:48.024Z,15.47
2019-01-25T09:14:56.984Z,16.50
2019-01-25T09:17:27.483Z,15.57
2019-01-25T09:20:38.175Z,15.93
2019-01-25T09:23:18.247Z,14.53
2019-01-25T09:26:01.325Z,15.63
2019-01-25T09:28:31.875Z,15.90
2019-01-25T09:31:02.730Z,17.33
2019-01-25T09:33:52.356Z,16.20
2019-01-25T09:36:41.925Z,15.57
2019-01-25T09:39:24.242Z,16.80
2019-01-25T09:42:06.797Z,14.63
2019-01-25T09:44:49.307Z,17.63
2019-01-25T09:47:34.383Z,14.87
2019-01-25T09:50:16.306Z,17.43
2019-01-25T09:52:47.134Z,14.60
2019-01-25T09:55:19.500Z,17.53
2019-01-25T09:58:10.642Z,18.03
2019-01-25T10:01:05.498Z,18.63
2019-01-25T10:03:47.848Z,15.27
2019-01-25T10:06:18.682Z,17.10
2019-01-25T10:09:30.164Z,15.10
2019-01-25T10:12:19.740Z,15.60
2019-01-25T10:15:01.435Z,14.10
2019-01-25T10:17:43.930Z,16.33
2019-01-25T10:20:27.133Z,16.87
2019-01-25T10:22:58.661Z,17.83
2019-01-25T10:25:48.298Z,15.90
2019-01-25T10:28:33.091Z,14.33
2019-01-25T10:31:16.056Z,16.50
2019-01-25T10:33:46.602Z,16.63
2019-01-25T10:36:36.547Z,16.80
2019-01-25T10:39:18.570Z,14.13
2019-01-25T10:41:49.735Z,13.27
2019-01-25T10:44:40.002Z,15.50
2019-01-25T10:47:10.861Z,15.27
2019-01-25T10:50:00.459Z,14.13
2019-01-25T10:52:31.299Z,15.10
2019-01-25T10:55:02.282Z,13.03
2019-01-25T10:57:52.440Z,15.10
2019-01-25T11:00:25.668Z,14.33
2019-01-25T11:02:58.461Z,14.63
2019-01-25T11:05:47.793Z,16.73
2019-01-25T11:08:19.959Z,14.43
2019-01-25T11:11:10.035Z,14.23
2019-01-25T11:14:00.183Z,15.37
2019-01-25T11:16:42.871Z,15.77
2019-01-25T11:19:13.948Z,14.83
2019-01-25T11:22:03.514Z,13.77
2019-01-25T11:24:53.379Z,13.53
2019-01-25T11:27:43.442Z,16.37
2019-01-25T11:30:14.630Z,14.53
2019-01-25T11:32:45.240Z,13.00
2019-01-25T11:35:34.879Z,13.53
2019-01-25T11:38:25.987Z,13.47
2019-01-25T11:40:56.520Z,14.70
2019-01-25T11:43:27.007Z,13.57
2019-01-25T11:46:38.160Z,14.07
2019-01-25T11:49:27.146Z,12.87
2019-01-25T11:52:09.595Z,13.20
2019-01-25T11:54:52.277Z,13.07
2019-01-25T11:57:34.907Z,13.53
2019-01-25T12:00:29.184Z,13.75
2019-01-25T12:03:11.539Z,11.50
2019-01-25T12:05:54.687Z,10.73
2019-01-25T12:08:25.238Z,11.40
2019-01-25T12:11:14.808Z,11.33
2019-01-25T12:13:45.347Z,10.90
2019-01-25T12:16:34.933Z,11.63
2019-01-25T12:19:18.620Z,10.77
2019-01-25T12:21:50.047Z,11.27
2019-01-25T12:24:39.663Z,11.00
2019-01-25T12:27:29.271Z,10.50
2019-01-25T12:30:11.547Z,11.53
2019-01-25T12:32:54.065Z,14.33
2019-01-25T12:35:36.142Z,13.90
2019-01-25T12:38:06.782Z,14.27
2019-01-25T12:40:56.363Z,14.57
2019-01-25T12:43:26.896Z,14.77
2019-01-25T12:46:16.471Z,15.40
2019-01-25T12:48:58.629Z,12.50
2019-01-25T12:52:08.478Z,11.67
2019-01-25T12:54:50.396Z,13.13
2019-01-25T12:57:32.860Z,15.87
2019-01-25T13:00:15.193Z,13.50
2019-01-25T13:02:56.998Z,15.17
2019-01-25T13:05:39.015Z,15.37
2019-01-25T13:08:09.531Z,13.07
2019-01-25T13:10:59.087Z,12.03
2019-01-25T13:13:49.480Z,12.10
2019-01-25T13:16:19.990Z,12.53
2019-01-25T13:19:09.567Z,11.83
2019-01-25T13:21:40.101Z,12.80
2019-01-25T13:24:29.715Z,13.87
2019-01-25T13:27:00.207Z,13.72
2019-01-25T13:29:31.039Z,12.57
2019-01-25T13:32:20.611Z,14.83
2019-01-25T13:35:10.187Z,14.00
2019-01-25T13:37:52.842Z,13.23
2019-01-25T13:43:18.216Z,13.08
2019-01-25T13:46:00.549Z,15.97
2019-01-25T13:48:42.669Z,14.10
2019-01-25T13:51:25.791Z,14.07
2019-01-25T13:54:08.291Z,13.97
2019-01-25T13:56:38.818Z,14.70
2019-01-25T13:59:09.334Z,12.50
2019-01-25T14:01:58.970Z,11.77
2019-01-25T14:04:41.697Z,14.17
2019-01-25T14:07:24.251Z,13.57
2019-01-25T14:10:06.691Z,13.03
2019-01-25T14:12:48.467Z,11.30
2019-01-25T14:15:19.008Z,14.47
2019-01-25T14:18:08.599Z,13.43
2019-01-25T14:20:51.108Z,15.03
2019-01-25T14:26:17.264Z,15.55
2019-01-25T14:28:59.257Z,13.33
2019-01-25T14:31:29.819Z,14.67
2019-01-25T14:34:19.416Z,12.25
2019-01-25T14:37:02.744Z,12.37
2019-01-25T14:39:46.911Z,14.70
2019-01-25T14:42:17.439Z,14.37
2019-01-25T14:44:47.951Z,13.60
2019-01-25T14:47:18.431Z,14.13
2019-01-25T14:50:29.180Z,12.10
2019-01-25T14:53:18.744Z,13.00
2019-01-25T14:56:01.034Z,12.90
2019-01-25T14:58:42.924Z,15.10
2019-01-25T15:01:25.387Z,13.20
2019-01-25T15:03:56.579Z,11.20
2019-01-25T15:06:46.190Z,13.77
2019-01-25T15:09:28.788Z,12.27
2019-01-25T15:11:59.303Z,11.80
2019-01-25T15:14:29.778Z,13.23
2019-01-25T15:17:19.419Z,14.33
2019-01-25T15:19:49.978Z,12.23
2019-01-25T15:22:20.552Z,13.47
2019-01-25T15:24:51.096Z,14.20
2019-01-25T15:27:21.595Z,13.90
2019-01-25T15:30:30.233Z,15.43
2019-01-25T15:33:12.823Z,12.80
2019-01-25T15:35:55.050Z,14.17
2019-01-25T15:38:38.067Z,14.07
2019-01-25T15:41:08.663Z,16.20
2019-01-25T15:43:59.897Z,13.87
2019-01-25T15:46:49.755Z,16.13
2019-01-25T15:49:39.631Z,17.20
2019-01-25T15:52:29.214Z,15.23
2019-01-25T15:54:59.730Z,14.10
2019-01-25T15:57:50.902Z,13.03
2019-01-25T16:00:27.460Z,13.93
2019-01-25T16:03:16.983Z,12.77
2019-01-25T16:05:47.528Z,13.40
2019-01-25T16:08:37.108Z,13.37
2019-01-25T16:11:19.083Z,12.83
2019-01-25T16:13:50.054Z,14.87
2019-01-25T16:16:39.045Z,13.00
2019-01-25T16:19:18.989Z,10.50
2019-01-25T16:22:00.879Z,15.10
2019-01-25T16:24:43.374Z,15.40
2019-01-25T16:27:13.881Z,15.17
2019-01-25T16:29:44.382Z,15.07
2019-01-25T16:32:15.922Z,17.37
2019-01-25T16:34:48.042Z,14.30
2019-01-25T16:37:37.686Z,15.80
2019-01-25T16:40:27.731Z,13.47
2019-01-25T16:43:17.345Z,15.00
2019-01-25T16:45:59.580Z,13.23
2019-01-25T16:48:30.092Z,15.67
2019-01-25T16:51:19.674Z,13.57
2019-01-25T16:53:50.983Z,14.50
2019-01-25T16:56:40.605Z,19.37
2019-01-25T16:59:30.185Z,14.63
2019-01-25T17:02:12.648Z,15.73
2019-01-25T17:04:54.743Z,13.53
2019-01-25T17:07:25.265Z,18.57
2019-01-25T17:10:15.471Z,14.77
2019-01-25T17:13:06.599Z,12.10
2019-01-25T17:15:49.216Z,16.47
2019-01-25T17:18:19.947Z,15.40
2019-01-25T17:21:09.541Z,15.93
2019-01-25T17:23:40.063Z,13.33
2019-01-25T17:26:31.195Z,14.10
2019-01-25T17:29:13.581Z,15.07
2019-01-25T17:31:45.286Z,15.77
2019-01-25T17:34:15.779Z,13.00
2019-01-25T17:37:06.964Z,16.63
2019-01-25T17:39:50.431Z,14.37
2019-01-25T17:42:32.503Z,14.30
2019-01-25T17:45:14.827Z,14.80
2019-01-25T17:47:57.231Z,15.37
2019-01-25T17:50:27.763Z,13.60
2019-01-25T17:53:17.391Z,12.93
2019-01-25T17:56:02.799Z,15.80
2019-01-25T17:58:45.620Z,16.37
2019-01-25T18:01:16.183Z,13.43
2019-01-25T18:04:05.778Z,13.60
2019-01-25T18:06:47.552Z,12.27
2019-01-25T18:09:30.203Z,14.80
2019-01-25T18:12:12.132Z,14.07
2019-01-25T18:14:54.791Z,14.23
2019-01-25T18:17:36.553Z,14.80
2019-01-25T18:20:08.775Z,15.07
2019-01-25T18:22:58.856Z,14.40
2019-01-25T18:25:51.593Z,13.40
2019-01-25T18:28:43.055Z,16.67
2019-01-25T18:31:32.948Z,14.53
2019-01-25T18:34:15.349Z,14.33
2019-01-25T18:36:45.991Z,14.63
2019-01-25T18:39:35.611Z,13.73
2019-01-25T18:42:17.456Z,16.73
2019-01-25T18:44:48.045Z,13.60
2019-01-25T18:47:37.740Z,12.37
2019-01-25T18:50:27.342Z,11.90
2019-01-25T18:53:09.480Z,12.15
2019-01-25T18:55:51.949Z,15.00
2019-01-25T18:58:27.026Z,13.10
2019-01-25T19:00:58.000Z,14.10
2019-01-25T19:03:50.705Z,12.43
2019-01-25T19:07:00.839Z,14.23
2019-01-25T19:09:43.183Z,15.33
2019-01-25T19:12:13.787Z,13.00
2019-01-25T19:14:44.303Z,12.57
2019-01-25T19:17:34.267Z,13.00
2019-01-25T19:20:26.246Z,13.67
2019-01-25T19:23:08.877Z,12.93
2019-01-25T19:25:51.511Z,13.87
2019-01-25T19:28:22.463Z,14.30
2019-01-25T19:31:12.125Z,13.50
2019-01-25T19:33:42.848Z,12.63
2019-01-25T19:36:32.491Z,12.03
2019-01-25T19:39:22.515Z,15.27
2019-01-25T19:42:12.181Z,14.97
2019-01-25T19:44:42.721Z,13.90
2019-01-25T19:47:13.236Z,13.63
2019-01-25T19:50:01.767Z,14.43
2019-01-25T19:52:33.251Z,15.37
2019-01-25T19:55:23.723Z,12.90
2019-01-25T19:58:14.559Z,13.98
2019-01-25T20:00:46.361Z,11.10
2019-01-25T20:03:37.988Z,12.77
2019-01-25T20:06:27.568Z,16.17
2019-01-25T20:08:58.086Z,14.00
2019-01-25T20:11:28.643Z,14.40
2019-01-25T20:14:18.235Z,14.10
2019-01-25T20:17:00.902Z,13.00
2019-01-25T20:19:43.526Z,13.13
2019-01-25T20:22:14.184Z,14.83
2019-01-25T20:24:45.195Z,14.87
2019-01-25T20:27:34.795Z,13.37
2019-01-25T20:30:27.831Z,14.90
2019-01-25T20:33:10.869Z,16.90
2019-01-25T20:35:53.635Z,16.30
2019-01-25T20:38:35.742Z,13.50
2019-01-25T20:41:18.789Z,17.50
2019-01-25T20:44:01.930Z,13.97
2019-01-25T20:46:44.093Z,13.07
2019-01-25T20:49:25.895Z,15.60
2019-01-25T20:51:56.683Z,13.70
2019-01-25T20:54:46.287Z,14.13
2019-01-25T20:57:35.894Z,14.43
2019-01-25T21:00:32.315Z,16.00
2019-01-25T21:03:21.917Z,17.50
2019-01-25T21:06:09.143Z,13.70
2019-01-25T21:11:44.393Z,16.00
2019-01-25T21:14:27.595Z,16.37
2019-01-25T21:17:10.241Z,16.50
2019-01-25T21:19:52.884Z,16.63
2019-01-25T21:22:35.425Z,15.13
2019-01-25T21:25:17.896Z,17.20
2019-01-25T21:27:49.791Z,19.30
2019-01-25T21:30:38.984Z,15.27
2019-01-25T21:33:21.639Z,18.53
2019-01-25T21:35:53.234Z,18.53
2019-01-25T21:38:42.826Z,18.77
2019-01-25T21:41:25.016Z,20.10
2019-01-25T21:46:40.653Z,22.23
2019-01-25T21:49:12.779Z,20.70
2019-01-25T21:52:02.391Z,26.53
2019-01-25T21:54:44.650Z,20.87
2019-01-25T21:57:15.226Z,22.87
2019-01-25T22:00:06.611Z,20.30
2019-01-25T22:02:49.067Z,23.33
2019-01-25T22:05:40.067Z,20.97
2019-01-25T22:08:29.083Z,21.62
2019-01-25T22:11:09.041Z,20.60
2019-01-25T22:13:52.874Z,21.90
2019-01-25T22:16:23.783Z,20.30
2019-01-25T22:19:13.367Z,21.53
2019-01-25T22:21:43.943Z,21.40
2019-01-25T22:24:14.475Z,23.27
2019-01-25T22:26:44.972Z,21.53
2019-01-25T22:29:34.559Z,24.33
2019-01-25T22:32:24.483Z,20.03
2019-01-25T22:34:56.644Z,20.30
2019-01-25T22:37:46.287Z,21.00
2019-01-25T22:40:48.299Z,21.40
2019-01-25T22:43:30.926Z,25.27
2019-01-25T22:46:13.085Z,24.33
2019-01-25T22:48:55.275Z,23.00
2019-01-25T22:51:38.029Z,24.30
2019-01-25T22:54:20.178Z,24.73
2019-01-25T22:57:02.760Z,22.40
2019-01-25T22:59:45.172Z,25.03
2019-01-25T23:02:26.917Z,26.53
2019-01-25T23:05:08.832Z,24.20
2019-01-25T23:07:39.394Z,24.37
2019-01-25T23:10:33.106Z,24.35
2019-01-25T23:13:15.279Z,23.80
2019-01-25T23:15:57.875Z,28.33
2019-01-25T23:18:39.615Z,24.40
2019-01-25T23:21:10.183Z,24.70
2019-01-25T23:23:59.792Z,25.50
2019-01-25T23:26:49.406Z,26.27
2019-01-25T23:29:31.613Z,29.13
2019-01-25T23:32:02.150Z,25.20
2019-01-25T23:34:51.754Z,26.87
2019-01-25T23:37:34.233Z,25.57
2019-01-25T23:40:15.521Z,25.70
2019-01-25T23:42:58.017Z,23.53
2019-01-25T23:45:28.575Z,25.00
2019-01-25T23:48:18.169Z,23.93
2019-01-25T23:51:00.547Z,25.53
2019-01-25T23:53:43.385Z,29.20
2019-01-25T23:56:25.448Z,25.70
2019-01-25T23:58:56.016Z,25.43
